Time;durP1;ratioP1;P1;durP2;ratioP2;P2;SDS_P1;SDS_P2;PMS_P1;PMS_P2;Temp;Humidity;BMP_temperature;BMP_pressure;BME280_temperature;BME280_humidity;BME280_pressure;Samples;Min_cycle;Max_cycle;Signal;HPM_P1;HPM_P2
2023/07/26 00:00:46;;;;;;;14.13;11.25;;;;;;;19.53;78.37;98444.09;5075410;28;20028;-52
2023/07/26 00:03:11;;;;;;;12.75;11.15;;;;;;;19.48;78.27;98442.03;5074250;28;20028;-56
2023/07/26 00:05:37;;;;;;;16.08;12.18;;;;;;;19.41;78.78;98439.38;5074679;28;20468;-54
2023/07/26 00:08:02;;;;;;;15.85;12.05;;;;;;;19.35;79.05;98435.63;5071357;28;20411;-56
2023/07/26 00:10:28;;;;;;;17.85;12.45;;;;;;;19.35;79.08;98430.19;5074057;28;20048;-53
2023/07/26 00:12:54;;;;;;;14.30;12.80;;;;;;;19.33;78.92;98437.72;5074691;28;20360;-53
2023/07/26 00:15:19;;;;;;;16.15;11.45;;;;;;;19.32;78.84;98443.34;5075064;28;20078;-53
2023/07/26 00:17:45;;;;;;;19.27;12.63;;;;;;;19.25;78.78;98429.81;5075105;28;20063;-52
2023/07/26 00:20:10;;;;;;;16.48;12.63;;;;;;;19.23;79.09;98426.47;5075162;28;20368;-48
2023/07/26 00:22:36;;;;;;;16.30;13.00;;;;;;;19.05;78.71;98397.34;5074873;28;20398;-49
2023/07/26 00:25:02;;;;;;;17.02;12.35;;;;;;;19.22;78.89;98419.41;5074066;28;20032;-53
2023/07/26 00:27:30;;;;;;;18.02;12.88;;;;;;;19.22;78.88;98422.09;5074752;28;20032;-52
2023/07/26 00:29:55;;;;;;;18.27;13.18;;;;;;;19.03;79.12;98388.59;5074620;28;20115;-55
2023/07/26 00:32:21;;;;;;;16.35;13.02;;;;;;;18.86;79.20;98363.81;5074556;28;20089;-57
2023/07/26 00:34:46;;;;;;;16.13;13.43;;;;;;;19.23;79.29;98421.06;5074922;28;20028;-51
2023/07/26 00:37:12;;;;;;;17.63;13.27;;;;;;;19.17;79.50;98420.06;5074613;28;20035;-53
2023/07/26 00:39:38;;;;;;;17.00;13.35;;;;;;;19.24;79.52;98428.16;5073772;28;20031;-55
2023/07/26 00:42:04;;;;;;;18.65;13.95;;;;;;;19.21;79.19;98420.44;5074471;28;20125;-53
2023/07/26 00:44:30;;;;;;;17.45;13.52;;;;;;;19.20;79.64;98422.34;5074441;28;20393;-53
2023/07/26 00:46:55;;;;;;;19.33;13.85;;;;;;;19.16;79.61;98412.94;5073011;28;20077;-55
2023/07/26 00:49:21;;;;;;;17.52;13.95;;;;;;;18.97;79.83;98384.81;5074867;28;20035;-54
2023/07/26 00:51:47;;;;;;;21.10;14.43;;;;;;;19.12;80.12;98409.00;5074776;28;20064;-54
2023/07/26 00:54:13;;;;;;;17.35;14.15;;;;;;;19.12;80.10;98405.47;5074667;28;20059;-53
2023/07/26 00:56:38;;;;;;;25.23;14.93;;;;;;;19.12;79.85;98408.19;5074164;28;20024;-54
2023/07/26 00:59:04;;;;;;;21.95;15.05;;;;;;;18.94;79.92;98386.09;5074055;28;20183;-51
2023/07/26 01:01:29;;;;;;;18.35;13.55;;;;;;;19.08;80.00;98422.16;5074354;28;20029;-52
2023/07/26 01:03:55;;;;;;;15.45;13.05;;;;;;;19.08;79.93;98421.31;5056759;28;20361;-56
2023/07/26 01:06:41;;;;;;;22.48;14.02;;;;;;;19.16;79.79;98421.06;5072487;28;20032;-51
2023/07/26 01:09:31;;;;;;;22.08;15.57;;;;;;;19.09;79.88;98423.00;5074093;28;20047;-54
2023/07/26 01:12:06;;;;;;;19.05;14.15;;;;;;;19.14;79.81;98412.31;5073995;28;20041;-50
2023/07/26 01:14:41;;;;;;;20.83;15.00;;;;;;;19.10;80.08;98400.25;5074033;28;20128;-51
2023/07/26 01:17:07;;;;;;;22.40;14.55;;;;;;;18.97;80.38;98401.09;5073986;28;20032;-52
2023/07/26 01:19:32;;;;;;;19.35;14.25;;;;;;;18.95;80.38;98397.75;5073075;28;20451;-50
2023/07/26 01:21:59;;;;;;;22.27;14.85;;;;;;;18.93;80.61;98395.28;5073511;28;20029;-55
2023/07/26 01:24:24;;;;;;;22.42;15.15;;;;;;;18.95;80.93;98392.34;5073679;28;20041;-54
2023/07/26 01:26:50;;;;;;;20.17;14.30;;;;;;;18.95;80.47;98392.34;5072477;28;20106;-53
2023/07/26 01:29:15;;;;;;;23.25;15.70;;;;;;;18.83;80.69;98369.66;5073709;28;20460;-54
2023/07/26 01:31:41;;;;;;;19.52;15.13;;;;;;;18.91;80.86;98378.38;5073187;28;20038;-54
2023/07/26 01:34:09;;;;;;;18.67;13.98;;;;;;;18.92;80.92;98392.78;5073645;28;20040;-54
2023/07/26 01:36:35;;;;;;;20.30;14.68;;;;;;;18.93;81.00;98391.72;5073485;28;20389;-54
2023/07/26 01:39:03;;;;;;;20.65;14.48;;;;;;;19.01;81.21;98396.94;5073597;28;20029;-56
2023/07/26 01:41:29;;;;;;;18.85;14.98;;;;;;;19.07;80.66;98387.97;5073912;28;20539;-50
2023/07/26 01:43:55;;;;;;;19.02;15.15;;;;;;;19.13;80.35;98388.97;5073647;28;20032;-58
2023/07/26 01:46:20;;;;;;;18.20;14.20;;;;;;;19.17;79.94;98394.78;5072029;28;20431;-55
2023/07/26 01:48:46;;;;;;;18.10;13.93;;;;;;;19.22;79.81;98392.25;5073277;28;20036;-49
2023/07/26 01:51:11;;;;;;;20.17;13.73;;;;;;;19.30;79.76;98399.31;5073346;28;20020;-53
2023/07/26 01:57:22;;;;;;;15.93;13.85;;;;;;;19.51;78.63;98392.75;5072988;28;20050;-54
2023/07/26 01:59:48;;;;;;;17.52;13.30;;;;;;;19.53;78.41;98387.91;5072932;28;20036;-47
2023/07/26 02:02:13;;;;;;;17.85;13.95;;;;;;;19.54;78.62;98384.19;5072536;28;20027;-53
2023/07/26 02:04:39;;;;;;;17.70;13.25;;;;;;;19.56;78.51;98392.94;5073108;28;20060;-52
2023/07/26 02:07:04;;;;;;;16.60;13.38;;;;;;;19.58;78.43;98393.56;5072469;28;20483;-54
2023/07/26 02:09:30;;;;;;;18.65;13.55;;;;;;;19.58;78.41;98388.13;5072513;28;20053;-52
2023/07/26 02:11:56;;;;;;;15.70;13.77;;;;;;;19.59;78.32;98380.78;5071613;28;20064;-53
2023/07/26 02:14:21;;;;;;;16.55;13.77;;;;;;;19.60;78.48;98383.31;5073119;28;20035;-53
2023/07/26 02:16:47;;;;;;;15.23;13.30;;;;;;;19.59;78.22;98378.09;5071942;28;20048;-52
2023/07/26 02:19:13;;;;;;;18.63;13.30;;;;;;;19.59;78.44;98384.34;5072000;28;20040;-50
2023/07/26 02:21:38;;;;;;;17.65;13.10;;;;;;;19.67;78.14;98399.56;5072870;28;20038;-53
2023/07/26 02:24:04;;;;;;;16.35;13.00;;;;;;;19.65;77.99;98380.75;5071940;28;20024;-53
2023/07/26 02:26:30;;;;;;;17.30;13.10;;;;;;;19.77;77.90;98391.75;5071936;28;20067;-55
2023/07/26 02:28:55;;;;;;;17.55;13.05;;;;;;;19.86;77.48;98391.47;5073049;28;20107;-54
2023/07/26 02:31:21;;;;;;;16.75;12.88;;;;;;;19.94;77.07;98388.53;5072198;28;20037;-55
2023/07/26 02:33:46;;;;;;;16.17;12.30;;;;;;;20.04;76.33;98393.50;5072723;28;20349;-51
2023/07/26 02:36:11;;;;;;;13.52;12.15;;;;;;;20.12;76.01;98395.91;5072381;28;20460;-52
2023/07/26 02:38:37;;;;;;;14.32;12.00;;;;;;;20.21;75.69;98383.72;5072726;28;20066;-53
2023/07/26 02:41:03;;;;;;;18.38;12.27;;;;;;;20.30;75.45;98386.16;5072789;28;20029;-53
2023/07/26 02:43:28;;;;;;;15.95;12.95;;;;;;;20.39;75.07;98387.53;5072638;28;20437;-58
2023/07/26 02:45:54;;;;;;;19.40;11.48;;;;;;;20.46;74.35;98395.63;5071405;28;20041;-51
2023/07/26 02:48:19;;;;;;;14.50;11.95;;;;;;;20.53;74.16;98390.13;5072762;28;20029;-52
2023/07/26 02:50:45;;;;;;;12.98;11.57;;;;;;;20.57;73.88;98386.72;5072533;28;20365;-52
2023/07/26 02:53:11;;;;;;;15.07;12.88;;;;;;;20.64;73.66;98381.22;5072397;28;20132;-55
2023/07/26 02:55:41;;;;;;;16.65;12.73;;;;;;;20.74;72.98;98380.69;5072248;28;20036;-51
2023/07/26 02:58:06;;;;;;;12.95;11.65;;;;;;;20.74;72.69;98367.94;5072688;28;20029;-57
2023/07/26 03:00:32;;;;;;;13.55;11.40;;;;;;;20.92;72.53;98379.91;5071406;28;20047;-53
2023/07/26 03:02:57;;;;;;;15.75;11.48;;;;;;;21.00;71.83;98379.63;5072689;28;20105;-55
2023/07/26 03:05:23;;;;;;;15.55;11.73;;;;;;;21.08;71.53;98373.84;5072335;28;20025;-51
2023/07/26 03:07:48;;;;;;;13.55;11.15;;;;;;;21.16;70.94;98374.59;5072423;28;20449;-52
2023/07/26 03:10:14;;;;;;;15.93;12.30;;;;;;;21.25;70.56;98378.69;5073034;28;20081;-54
2023/07/26 03:12:39;;;;;;;15.48;11.88;;;;;;;21.35;70.72;98387.13;5076318;28;20360;-54
2023/07/26 03:15:05;;;;;;;16.92;11.80;;;;;;;21.42;69.90;98375.28;5076114;28;20464;-54
2023/07/26 03:17:32;;;;;;;17.05;12.48;;;;;;;21.62;69.53;98389.47;5076263;28;20024;-55
2023/07/26 03:19:58;;;;;;;14.35;12.00;;;;;;;21.75;68.92;98380.31;5076454;28;20102;-53
2023/07/26 03:22:23;;;;;;;13.73;11.38;;;;;;;21.92;68.18;98375.00;5075419;28;20094;-55
2023/07/26 03:24:49;;;;;;;16.00;11.98;;;;;;;22.09;67.89;98385.22;5076092;28;20036;-55
2023/07/26 03:27:14;;;;;;;17.33;11.70;;;;;;;22.04;67.24;98346.97;5076041;28;20086;-55
2023/07/26 03:29:40;;;;;;;15.32;11.85;;;;;;;22.45;66.15;98380.66;5075937;28;20028;-56
2023/07/26 03:32:06;;;;;;;15.10;10.82;;;;;;;22.75;65.63;98381.59;5074939;28;20047;-55
2023/07/26 03:34:32;;;;;;;15.02;11.57;;;;;;;23.16;63.76;98362.53;5075029;28;20042;-56
2023/07/26 03:36:57;;;;;;;14.98;10.93;;;;;;;23.72;62.31;98372.88;5075759;28;20108;-50
2023/07/26 03:39:23;;;;;;;13.25;10.65;;;;;;;24.26;60.33;98361.50;5076022;28;20056;-49
2023/07/26 03:41:48;;;;;;;13.07;9.82;;;;;;;24.82;59.04;98357.94;5075781;28;20024;-53
2023/07/26 03:44:14;;;;;;;15.20;10.52;;;;;;;25.47;56.47;98363.66;5075751;28;20042;-55
2023/07/26 03:46:39;;;;;;;11.45;9.52;;;;;;;26.08;54.90;98362.56;5075167;28;20079;-56
2023/07/26 03:49:05;;;;;;;12.80;9.32;;;;;;;26.60;53.30;98371.19;5075061;28;20029;-56
2023/07/26 03:51:30;;;;;;;12.93;9.63;;;;;;;27.21;51.33;98363.53;5075632;28;20033;-57
2023/07/26 03:53:56;;;;;;;10.82;9.73;;;;;;;27.72;50.11;98370.28;5074643;28;20028;-55
2023/07/26 03:56:21;;;;;;;14.13;9.30;;;;;;;28.03;48.61;98367.56;5074798;28;20872;-54
2023/07/26 03:58:48;;;;;;;12.32;9.65;;;;;;;28.27;47.96;98365.09;5075319;28;20436;-53
2023/07/26 04:01:13;;;;;;;12.13;9.05;;;;;;;28.65;46.46;98331.69;5075341;28;20043;-49
2023/07/26 04:03:39;;;;;;;10.85;8.55;;;;;;;29.41;44.63;98362.03;5074797;28;20024;-55
2023/07/26 04:06:05;;;;;;;10.30;7.90;;;;;;;30.03;43.36;98347.84;5075313;28;20187;-54
2023/07/26 04:08:30;;;;;;;9.50;8.43;;;;;;;30.65;41.58;98354.72;5074288;28;20143;-53
2023/07/26 04:10:56;;;;;;;9.52;7.53;;;;;;;31.10;40.05;98337.88;5075201;28;20052;-52
2023/07/26 04:13:22;;;;;;;11.50;8.07;;;;;;;31.62;39.45;98335.22;5075295;28;20036;-53
2023/07/26 04:15:47;;;;;;;10.85;7.93;;;;;;;32.04;38.22;98335.41;5074805;28;20123;-53
2023/07/26 04:18:13;;;;;;;8.32;7.53;;;;;;;32.54;37.11;98335.94;5075140;28;20032;-55
2023/07/26 04:20:38;;;;;;;11.50;7.80;;;;;;;33.07;36.09;98327.13;5075042;28;20053;-55
2023/07/26 04:23:04;;;;;;;11.02;7.90;;;;;;;33.63;35.09;98321.47;5074771;28;20103;-59
2023/07/26 04:25:30;;;;;;;10.20;7.90;;;;;;;34.28;33.44;98317.66;5074980;28;20039;-53
2023/07/26 04:27:55;;;;;;;9.68;7.57;;;;;;;34.91;32.72;98317.59;5074804;28;20078;-55
2023/07/26 04:30:21;;;;;;;9.95;6.68;;;;;;;35.36;31.80;98316.56;5074967;28;20028;-54
2023/07/26 04:32:47;;;;;;;8.38;6.85;;;;;;;35.80;31.04;98313.78;5074913;28;20032;-57
2023/07/26 04:35:12;;;;;;;10.07;7.07;;;;;;;36.25;30.27;98322.91;5074749;28;20032;-56
2023/07/26 04:37:38;;;;;;;9.60;6.80;;;;;;;36.84;29.57;98316.59;5074885;28;20036;-56
2023/07/26 04:40:03;;;;;;;8.18;6.75;;;;;;;37.24;28.61;98312.59;5074871;28;20436;-55
2023/07/26 04:42:31;;;;;;;8.65;7.00;;;;;;;37.69;27.50;98311.09;5075040;28;20377;-57
2023/07/26 04:44:56;;;;;;;10.48;7.15;;;;;;;38.03;26.72;98302.75;5074438;28;20032;-53
2023/07/26 04:47:24;;;;;;;8.20;7.40;;;;;;;38.52;26.55;98278.84;5073659;28;20102;-56
2023/07/26 04:49:50;;;;;;;7.63;6.85;;;;;;;38.89;25.54;98299.22;5074536;28;20035;-56
2023/07/26 04:52:15;;;;;;;8.93;6.93;;;;;;;39.17;25.13;98292.13;5074733;28;20123;-54
2023/07/26 04:54:41;;;;;;;11.10;7.32;;;;;;;39.23;24.71;98243.13;5074637;28;20423;-54
2023/07/26 04:57:06;;;;;;;7.90;7.10;;;;;;;40.13;23.74;98298.06;5074465;28;20445;-58
2023/07/26 04:59:32;;;;;;;10.30;6.60;;;;;;;40.44;23.67;98304.88;5073480;28;20056;-56
2023/07/26 05:01:57;;;;;;;10.57;6.65;;;;;;;40.59;23.16;98299.63;5072467;28;20039;-54
2023/07/26 05:04:23;;;;;;;12.27;7.35;;;;;;;40.36;23.41;98279.81;5073277;28;20022;-61
2023/07/26 05:06:48;;;;;;;9.52;7.70;;;;;;;40.02;24.29;98294.13;5072758;28;20107;-59
2023/07/26 05:09:14;;;;;;;10.95;6.78;;;;;;;39.61;24.29;98297.84;5073486;28;20024;-57
2023/07/26 05:11:39;;;;;;;8.00;7.15;;;;;;;39.30;24.82;98281.69;5073896;28;20453;-53
2023/07/26 05:14:05;;;;;;;11.70;7.68;;;;;;;38.86;25.15;98287.94;5074251;28;20039;-57
2023/07/26 05:16:30;;;;;;;10.05;7.22;;;;;;;38.24;25.76;98273.91;5073494;28;20086;-53
2023/07/26 05:18:57;;;;;;;8.73;7.85;;;;;;;38.11;26.22;98268.34;5073307;28;20800;-56
2023/07/26 05:21:24;;;;;;;9.18;7.70;;;;;;;38.52;26.42;98262.91;5071942;28;20480;-52
2023/07/26 05:23:49;;;;;;;8.77;7.78;;;;;;;38.79;26.15;98252.16;5087750;28;20024;-53
2023/07/26 05:26:15;;;;;;;8.70;7.68;;;;;;;39.11;24.79;98246.75;5055548;28;20047;-55
2023/07/26 05:28:41;;;;;;;8.18;7.43;;;;;;;39.67;24.67;98253.59;5073085;28;20024;-56
2023/07/26 05:31:06;;;;;;;9.73;7.63;;;;;;;40.05;23.88;98252.22;5073678;28;20033;-53
2023/07/26 05:33:32;;;;;;;9.50;7.57;;;;;;;40.23;24.07;98251.88;5073009;28;20040;-54
2023/07/26 05:35:58;;;;;;;8.57;7.68;;;;;;;40.16;23.43;98234.88;5073377;28;20035;-54
2023/07/26 05:38:24;;;;;;;9.32;7.63;;;;;;;40.06;23.74;98227.81;5072962;28;20032;-56
2023/07/26 05:40:49;;;;;;;12.75;7.18;;;;;;;40.19;23.44;98212.53;5072880;28;20436;-55
2023/07/26 05:43:17;;;;;;;9.35;8.05;;;;;;;41.11;22.46;98246.31;5073209;28;20036;-55
2023/07/26 05:45:44;;;;;;;11.48;8.18;;;;;;;41.54;22.09;98243.59;5073102;28;20418;-55
2023/07/26 05:48:09;;;;;;;9.70;8.57;;;;;;;41.87;21.94;98240.25;5073171;28;20058;-58
2023/07/26 05:50:36;;;;;;;12.63;8.20;;;;;;;41.92;21.81;98250.38;5073252;28;20032;-55
2023/07/26 05:53:01;;;;;;;11.35;8.30;;;;;;;42.52;20.64;98245.41;5072447;28;20089;-56
2023/07/26 05:55:27;;;;;;;13.65;8.40;;;;;;;42.17;20.88;98258.47;5073019;28;20119;-54
2023/07/26 05:57:52;;;;;;;12.82;8.48;;;;;;;41.33;21.89;98268.09;5072357;28;20052;-51
2023/07/26 06:00:19;;;;;;;11.63;8.38;;;;;;;40.36;23.20;98261.03;5072985;28;20025;-53
2023/07/26 06:02:45;;;;;;;14.32;8.40;;;;;;;38.99;24.75;98260.81;5072456;28;20094;-53
2023/07/26 06:05:10;;;;;;;11.45;8.75;;;;;;;37.50;27.08;98258.56;5072628;28;20429;-51
2023/07/26 06:07:37;;;;;;;13.95;8.25;;;;;;;36.65;28.12;98255.69;5073117;28;20040;-55
2023/07/26 06:10:03;;;;;;;12.27;8.00;;;;;;;36.67;28.23;98255.34;5072422;28;20055;-56
2023/07/26 06:12:30;;;;;;;9.70;8.63;;;;;;;37.11;27.74;98252.28;5071798;28;20142;-55
2023/07/26 06:14:55;;;;;;;11.05;8.82;;;;;;;37.65;26.86;98245.16;5072083;28;20056;-57
2023/07/26 06:17:21;;;;;;;11.13;8.63;;;;;;;38.26;25.97;98249.25;5071686;28;20037;-55
2023/07/26 06:19:48;;;;;;;11.73;8.88;;;;;;;38.89;25.18;98245.28;5070995;28;20033;-55
2023/07/26 06:22:13;;;;;;;8.68;7.78;;;;;;;39.41;24.58;98240.06;5072007;28;20036;-56
2023/07/26 06:24:39;;;;;;;11.98;8.30;;;;;;;39.80;24.07;98250.72;5072129;28;20430;-57
2023/07/26 06:27:05;;;;;;;11.00;8.65;;;;;;;39.77;24.31;98241.03;5071145;28;20342;-51
2023/07/26 06:29:30;;;;;;;12.45;8.70;;;;;;;39.57;24.35;98238.13;5071312;28;20102;-55
2023/07/26 06:31:56;;;;;;;9.68;8.07;;;;;;;39.48;24.70;98232.69;5071469;28;20039;-56
2023/07/26 06:34:21;;;;;;;12.20;7.60;;;;;;;40.36;23.83;98234.97;5070804;28;20033;-56
2023/07/26 06:36:47;;;;;;;11.77;8.38;;;;;;;40.66;23.05;98224.06;5071557;28;20388;-56
2023/07/26 06:39:12;;;;;;;10.45;8.18;;;;;;;41.07;22.52;98220.19;5071109;28;20029;-57
2023/07/26 06:41:38;;;;;;;12.10;8.13;;;;;;;41.73;22.04;98214.72;5071013;28;20039;-57
2023/07/26 06:44:05;;;;;;;13.32;7.82;;;;;;;42.52;20.81;98200.41;5069983;28;20115;-57
2023/07/26 06:46:30;;;;;;;10.48;7.72;;;;;;;42.80;20.42;98199.97;5070957;28;20524;-55
2023/07/26 06:48:56;;;;;;;15.63;7.53;;;;;;;42.56;21.00;98206.88;5071439;28;20124;-64
2023/07/26 06:51:21;;;;;;;11.52;7.97;;;;;;;41.90;21.16;98210.59;5055795;28;20033;-62
2023/07/26 06:53:47;;;;;;;11.75;7.85;;;;;;;41.27;22.15;98207.81;5060816;28;20043;-61
2023/07/26 06:56:12;;;;;;;10.35;8.55;;;;;;;40.80;22.53;98206.78;5070570;28;20032;-60
2023/07/26 06:58:38;;;;;;;9.55;7.68;;;;;;;40.24;23.44;98199.41;5071589;28;20434;-63
2023/07/26 07:01:03;;;;;;;10.68;8.20;;;;;;;39.76;24.30;98188.97;5070462;28;20056;-62
2023/07/26 07:03:29;;;;;;;10.80;8.40;;;;;;;38.75;24.84;98204.50;5070665;28;20032;-63
2023/07/26 07:05:55;;;;;;;9.70;7.80;;;;;;;38.23;25.95;98188.47;5068769;28;20528;-63
2023/07/26 07:08:20;;;;;;;20.33;9.60;;;;;;;38.08;26.45;98182.41;5071518;28;20028;-63
2023/07/26 07:10:46;;;;;;;13.07;8.13;;;;;;;38.00;26.36;98147.84;5029993;28;1192802;-62
2023/07/26 07:13:12;;;;;;;20.63;9.15;;;;;;;38.36;25.76;98180.88;5071981;28;20055;-62
2023/07/26 07:15:37;;;;;;;14.13;8.38;;;;;;;38.42;25.70;98182.28;5067827;28;21382;-66
2023/07/26 07:18:03;;;;;;;11.00;7.75;;;;;;;38.16;26.18;98177.84;5061205;28;20094;-64
2023/07/26 07:20:28;;;;;;;8.90;7.75;;;;;;;37.61;27.22;98178.81;5069871;28;20397;-62
2023/07/26 07:22:54;;;;;;;10.80;7.82;;;;;;;36.90;28.29;98178.59;5071087;28;20035;-64
2023/07/26 07:25:20;;;;;;;12.27;7.72;;;;;;;36.38;28.67;98174.16;5069349;28;20024;-63
2023/07/26 07:27:45;;;;;;;12.13;8.23;;;;;;;35.95;29.40;98164.06;5064048;28;20053;-62
2023/07/26 07:30:13;;;;;;;8.77;7.68;;;;;;;35.52;30.35;98163.88;5071195;28;20040;-64
2023/07/26 07:32:38;;;;;;;13.50;8.43;;;;;;;34.99;30.70;98146.38;5070209;28;20178;-67
2023/07/26 07:35:05;;;;;;;10.20;8.75;;;;;;;34.37;32.13;98156.59;5061632;28;20028;-62
2023/07/26 07:37:30;;;;;;;10.95;8.52;;;;;;;33.86;33.32;98146.59;5070921;28;20020;-62
2023/07/26 07:39:56;;;;;;;10.77;8.02;;;;;;;33.50;33.65;98137.28;5068756;28;20040;-63
2023/07/26 07:42:21;;;;;;;11.77;8.63;;;;;;;33.72;33.74;98143.09;5069906;28;20040;-62
2023/07/26 07:44:47;;;;;;;13.55;8.20;;;;;;;33.86;33.78;98143.81;5069879;28;20029;-62
2023/07/26 07:47:13;;;;;;;15.07;8.38;;;;;;;33.96;33.49;98133.59;5069850;28;20395;-64
2023/07/26 07:49:38;;;;;;;13.13;8.55;;;;;;;33.68;33.58;98106.84;5063798;28;20334;-63
2023/07/26 07:52:04;;;;;;;12.32;9.00;;;;;;;33.42;34.09;98140.84;5068456;28;20416;-62
2023/07/26 07:54:30;;;;;;;11.73;8.82;;;;;;;33.02;34.86;98135.16;5069526;28;20036;-62
2023/07/26 07:56:55;;;;;;;14.95;8.68;;;;;;;32.65;35.45;98110.22;5071273;28;20063;-61
2023/07/26 07:59:20;;;;;;;13.70;8.95;;;;;;;32.70;35.42;98126.72;5073768;28;20032;-61
2023/07/26 08:01:46;;;;;;;19.38;9.00;;;;;;;32.57;36.23;98127.59;5074502;28;20050;-62
2023/07/26 08:04:11;;;;;;;14.35;8.77;;;;;;;32.54;36.45;98142.03;5074711;28;20198;-62
2023/07/26 08:06:37;;;;;;;13.57;9.23;;;;;;;32.43;36.63;98136.72;5069194;28;20037;-61
2023/07/26 08:09:03;;;;;;;14.60;9.60;;;;;;;32.04;37.21;98146.38;5072372;28;20046;-65
2023/07/26 08:11:28;;;;;;;15.20;9.95;;;;;;;31.55;38.18;98148.66;5072263;28;20055;-73
2023/07/26 08:13:54;;;;;;;17.30;10.25;;;;;;;31.13;39.42;98149.31;5072488;28;20224;-62
2023/07/26 08:16:19;;;;;;;13.25;9.57;;;;;;;30.50;40.88;98146.63;5073051;28;20056;-61
2023/07/26 08:18:45;;;;;;;12.57;9.52;;;;;;;29.76;42.30;98142.22;5073230;28;20376;-63
2023/07/26 08:21:12;;;;;;;17.00;10.00;;;;;;;29.20;43.76;98149.09;5068413;28;20030;-63
2023/07/26 08:23:39;;;;;;;15.70;9.32;;;;;;;29.07;43.94;98137.63;5059770;28;20039;-68
2023/07/26 08:26:08;;;;;;;19.23;10.20;;;;;;;29.35;43.00;98154.47;5074312;28;20252;-68
2023/07/26 08:28:33;;;;;;;12.80;9.65;;;;;;;29.63;42.60;98145.69;5072709;28;20538;-63
2023/07/26 08:30:59;;;;;;;15.63;10.13;;;;;;;29.85;42.21;98153.44;5073880;28;20036;-66
2023/07/26 08:33:25;;;;;;;18.08;10.60;;;;;;;29.87;42.51;98142.94;5073181;28;20044;-65
2023/07/26 08:35:51;;;;;;;20.40;9.95;;;;;;;29.49;43.10;98148.31;5074105;28;20036;-64
2023/07/26 08:38:17;;;;;;;18.23;10.82;;;;;;;29.11;44.11;98128.78;5063031;28;20043;-62
2023/07/26 08:40:50;;;;;;;18.73;11.18;;;;;;;28.97;44.83;98154.22;5071761;28;20040;-67
2023/07/26 08:43:18;;;;;;;16.13;11.00;;;;;;;28.68;45.79;98141.16;5073904;28;20055;-62
2023/07/26 08:45:44;;;;;;;17.50;11.10;;;;;;;28.60;45.98;98123.31;5072944;28;20032;-65
2023/07/26 08:48:11;;;;;;;17.13;10.85;;;;;;;28.67;46.11;98131.25;5073381;28;20040;-66
2023/07/26 08:50:40;;;;;;;14.15;11.18;;;;;;;28.63;45.78;98127.41;5071372;28;20040;-64
2023/07/26 08:53:07;;;;;;;13.43;10.05;;;;;;;28.43;46.13;98109.91;5073546;28;20038;-63
2023/07/26 08:55:33;;;;;;;15.35;9.85;;;;;;;28.44;46.96;98103.31;5073922;28;20123;-61
2023/07/26 08:58:00;;;;;;;17.80;10.45;;;;;;;28.50;46.52;98096.69;5073415;28;20036;-61
2023/07/26 09:00:26;;;;;;;12.73;10.00;;;;;;;28.51;46.59;98086.47;5072875;28;20032;-63
2023/07/26 09:02:55;;;;;;;13.77;10.43;;;;;;;28.48;46.83;98085.13;5073390;28;20093;-62
2023/07/26 09:05:20;;;;;;;14.80;10.25;;;;;;;28.31;47.50;98063.47;5073416;28;20047;-60
2023/07/26 09:07:46;;;;;;;16.00;10.77;;;;;;;28.06;48.14;98048.72;5070490;28;20457;-61
2023/07/26 09:10:11;;;;;;;13.70;10.68;;;;;;;28.11;48.32;98058.09;5072695;28;20075;-61
2023/07/26 09:12:37;;;;;;;15.70;10.98;;;;;;;27.84;49.35;98053.78;5072575;28;20036;-60
2023/07/26 09:15:07;;;;;;;14.45;10.50;;;;;;;27.56;49.04;98014.84;5072799;28;20058;-58
2023/07/26 09:17:41;;;;;;;13.10;11.07;;;;;;;27.72;49.16;98073.34;5071544;28;20456;-60
2023/07/26 09:20:22;;;;;;;13.05;10.10;;;;;;;27.59;49.57;98061.84;5072229;28;20165;-63
2023/07/26 09:22:58;;;;;;;16.80;11.00;;;;;;;27.19;49.97;98023.19;5071925;28;20033;-63
2023/07/26 09:25:31;;;;;;;17.50;10.50;;;;;;;27.14;50.85;98058.06;5071497;28;20119;-62
2023/07/26 09:27:58;;;;;;;16.77;11.50;;;;;;;26.84;52.14;98057.75;5071369;28;20048;-61
2023/07/26 09:30:24;;;;;;;19.33;12.05;;;;;;;26.55;53.28;98054.75;5072328;28;20082;-61
2023/07/26 09:32:49;;;;;;;17.40;12.00;;;;;;;26.53;53.65;98056.94;5071209;28;20045;-63
2023/07/26 09:35:15;;;;;;;20.00;12.80;;;;;;;26.45;54.27;98075.56;5072756;28;20025;-56
2023/07/26 09:37:41;;;;;;;18.73;12.38;;;;;;;26.40;54.87;98080.22;5073239;28;20165;-58
2023/07/26 09:40:07;;;;;;;17.08;10.52;;;;;;;26.29;54.64;98065.69;5073169;28;20113;-58
2023/07/26 09:42:46;;;;;;;16.52;11.68;;;;;;;26.46;53.75;98074.47;5072106;28;20028;-59
2023/07/26 09:45:21;;;;;;;27.15;16.65;;;;;;;26.27;55.34;98065.09;5073433;28;20029;-55
2023/07/26 09:47:48;;;;;;;27.55;15.55;;;;;;;25.90;56.18;98045.78;5073296;28;20024;-57
2023/07/26 09:50:28;;;;;;;26.27;15.10;;;;;;;25.97;57.25;98058.41;5073504;28;20075;-58
2023/07/26 09:52:55;;;;;;;17.67;14.00;;;;;;;25.84;58.06;98038.63;5072580;28;20036;-56
2023/07/26 09:55:26;;;;;;;20.27;13.93;;;;;;;26.10;56.90;98063.41;5073036;28;20128;-59
2023/07/26 09:57:54;;;;;;;22.65;13.98;;;;;;;26.20;55.71;98060.69;5073110;28;20046;-56
2023/07/26 10:00:21;;;;;;;19.15;13.65;;;;;;;26.36;55.72;98066.25;5072733;28;20040;-59
2023/07/26 10:02:56;;;;;;;20.27;13.35;;;;;;;26.56;54.87;98064.63;5072484;28;20040;-60
2023/07/26 10:05:24;;;;;;;17.52;12.38;;;;;;;26.62;54.47;98071.75;5072758;28;20372;-60
2023/07/26 10:07:50;;;;;;;15.30;11.20;;;;;;;26.66;54.40;98070.13;5072054;28;20033;-58
2023/07/26 10:10:18;;;;;;;18.52;11.13;;;;;;;26.64;54.26;98062.13;5072382;28;20060;-59
2023/07/26 10:12:45;;;;;;;20.42;11.65;;;;;;;26.61;54.49;98062.69;5073032;28;20120;-58
2023/07/26 10:15:15;;;;;;;16.63;11.75;;;;;;;26.58;55.53;98063.25;5072657;28;20326;-60
2023/07/26 10:17:45;;;;;;;18.90;12.68;;;;;;;26.48;55.44;98053.06;5072915;28;20025;-57
2023/07/26 10:20:11;;;;;;;22.00;13.90;;;;;;;26.48;55.67;98069.53;5071670;28;20036;-57
2023/07/26 10:22:39;;;;;;;19.77;13.85;;;;;;;26.38;55.52;98058.56;5071397;28;20040;-59
2023/07/26 10:25:05;;;;;;;19.48;13.75;;;;;;;26.32;56.20;98076.91;5071474;28;20028;-60
2023/07/26 10:27:32;;;;;;;26.52;15.27;;;;;;;26.18;57.07;98084.84;5071822;28;20032;-60
2023/07/26 10:29:57;;;;;;;19.77;14.02;;;;;;;26.01;57.60;98084.19;5068170;28;20361;-61
2023/07/26 10:32:23;;;;;;;23.85;13.80;;;;;;;25.83;58.42;98082.75;5071118;28;20033;-61
2023/07/26 10:34:56;;;;;;;16.67;12.48;;;;;;;25.74;59.42;98083.28;5069144;28;20047;-62
2023/07/26 10:37:23;;;;;;;18.60;12.88;;;;;;;25.62;61.04;98096.34;5071409;28;20103;-62
2023/07/26 10:39:49;;;;;;;19.80;13.85;;;;;;;25.47;62.81;98097.06;5072199;28;20078;-63
2023/07/26 10:42:26;;;;;;;20.98;14.60;;;;;;;25.42;63.40;98111.53;5070132;28;20453;-63
2023/07/26 10:44:59;;;;;;;17.80;14.75;;;;;;;25.25;64.47;98102.66;5068992;28;20048;-61
2023/07/26 10:47:25;;;;;;;20.83;15.63;;;;;;;24.82;67.02;98042.34;5069050;28;20075;-61
2023/07/26 10:49:53;;;;;;;20.40;15.60;;;;;;;24.72;68.23;98046.63;5070370;28;20409;-60
2023/07/26 10:52:20;;;;;;;18.52;14.35;;;;;;;24.46;67.61;98016.31;5069072;28;20024;-61
2023/07/26 10:54:50;;;;;;;17.88;14.75;;;;;;;24.16;67.64;97989.50;5069712;28;20028;-62
2023/07/26 10:57:28;;;;;;;21.55;15.15;;;;;;;24.13;68.62;98020.94;5070138;28;20032;-61
2023/07/26 10:59:58;;;;;;;23.85;16.17;;;;;;;23.70;71.22;98022.59;5072027;28;20072;-61
2023/07/26 11:02:38;;;;;;;26.77;15.70;;;;;;;23.60;71.40;98013.16;5071601;28;20028;-61
2023/07/26 11:05:06;;;;;;;22.27;16.27;;;;;;;23.28;73.40;97994.75;5071941;28;20020;-62
2023/07/26 11:07:51;;;;;;;25.50;18.00;;;;;;;23.29;74.44;97998.31;5071987;28;20024;-59
2023/07/26 11:10:29;;;;;;;27.60;18.38;;;;;;;23.12;74.88;97965.53;5071666;28;20052;-64
2023/07/26 11:13:10;;;;;;;29.63;18.35;;;;;;;23.03;76.08;97979.63;5071962;28;20073;-60
2023/07/26 11:15:42;;;;;;;36.15;20.77;;;;;;;22.83;78.64;97977.44;5071496;28;20512;-61
2023/07/26 11:18:09;;;;;;;32.10;20.20;;;;;;;22.75;79.72;97975.09;5071866;28;20032;-60
2023/07/26 11:20:54;;;;;;;30.25;21.42;;;;;;;22.88;79.97;97974.78;5071050;28;20363;-60
2023/07/26 11:23:20;;;;;;;37.50;22.65;;;;;;;22.78;80.62;97980.06;5070703;28;20415;-60